Saint-Pie, Canada
Current Conditions -  °F | °C
As of 3:43 PM on Thursday 23 Oct 2014 (Local Time) from CYHU Reporting Station
Light Rain Light Rain  
Wind Chill: 37°   Ceiling: 3100
Heat Index: 45°   Visibility: 7mi
Dew Point: 41°   Wind: 20mph
Humidity: 87%   Direction: 30°NNE
Pressure: 30"   Gusts: NA
Location:  45.5°N, 72.9°W
Report Text: CYHU 231943Z AUTO 03017KT 7SM -RA SCT016 BKN031 OVC044 07/05 A3000 RMK PCPN 1.8MM PAST HR SLP160
Loading
Personal Weather Stations






























Interactive Weather Map
Tropical Storm Tracking
New forecast layout! Learn more

10-Day Weather Forecast

Advertisements
Track Severe Weather on mobile